Time;durP1;ratioP1;P1;durP2;ratioP2;P2;SDS_P1;SDS_P2;PMS_P1;PMS_P2;Temp;Humidity;BMP_temperature;BMP_pressure;BME280_temperature;BME280_humidity;BME280_pressure;Samples;Min_cycle;Max_cycle;Signal;HPM_P1;HPM_P2
2022/01/23 00:01:17;;;;;;;0.30;0.30;;;2.80;99.90;;;;;;4937620;29;20541;-84
2022/01/23 00:03:47;;;;;;;0.30;0.30;;;2.80;99.90;;;;;;4937182;29;20463;-84
2022/01/23 00:06:14;;;;;;;0.47;0.47;;;2.80;99.90;;;;;;4937532;29;20443;-84
2022/01/23 00:08:40;;;;;;;0.30;0.30;;;2.80;99.90;;;;;;4937810;29;20466;-84
2022/01/23 00:11:07;;;;;;;0.30;0.20;;;2.80;99.90;;;;;;4936995;29;20439;-84
2022/01/23 00:17:13;;;;;;;0.30;0.20;;;2.80;99.90;;;;;;4937179;29;20498;-83
2022/01/23 00:19:07;;;;;;;0.80;0.80;;;2.80;99.90;;;;;;4936558;29;20570;-87
2022/01/23 00:21:36;;;;;;;0.30;0.30;;;2.90;99.90;;;;;;4936784;29;20459;-87
2022/01/23 00:32:17;;;;;;;0.30;0.20;;;2.90;99.90;;;;;;4936773;29;20446;-84
2022/01/23 00:34:44;;;;;;;0.30;0.30;;;2.80;99.90;;;;;;4936241;29;20470;-84
2022/01/23 00:37:11;;;;;;;0.30;0.30;;;2.80;99.90;;;;;;4936385;29;20498;-84
2022/01/23 00:39:37;;;;;;;0.30;0.20;;;2.80;99.90;;;;;;4935951;29;20455;-84
2022/01/23 00:42:05;;;;;;;2.07;0.50;;;2.80;99.90;;;;;;4936544;29;20459;-84
2022/01/23 00:44:34;;;;;;;0.63;0.63;;;2.80;99.90;;;;;;4936035;29;21003;-84
2022/01/23 00:47:04;;;;;;;0.30;0.20;;;2.90;99.90;;;;;;4936588;29;20821;-84
2022/01/23 00:49:32;;;;;;;0.30;0.20;;;2.80;99.90;;;;;;4935964;29;20578;-84
2022/01/23 00:51:58;;;;;;;0.80;0.80;;;2.80;99.90;;;;;;4936316;29;20447;-84
2022/01/23 00:54:26;;;;;;;0.30;0.20;;;2.80;99.90;;;;;;4935987;29;20467;-84
2022/01/23 00:56:54;;;;;;;0.40;0.30;;;2.80;99.90;;;;;;4935858;29;21093;-84
2022/01/23 00:59:20;;;;;;;0.40;0.40;;;2.80;99.90;;;;;;4935913;29;20838;-84
2022/01/23 01:01:47;;;;;;;0.30;0.20;;;2.80;99.90;;;;;;4936290;29;20455;-84
2022/01/23 01:04:14;;;;;;;0.50;0.40;;;2.80;99.90;;;;;;4936103;29;20850;-84
2022/01/23 01:06:43;;;;;;;0.30;0.30;;;2.90;99.90;;;;;;4935933;29;20943;-84
2022/01/23 01:09:13;;;;;;;0.30;0.30;;;2.90;99.90;;;;;;4935853;29;20463;-84
2022/01/23 01:14:30;;;;;;;0.30;0.20;;;2.80;99.90;;;;;;4933536;29;20455;-84
2022/01/23 01:17:04;;;;;;;0.30;0.30;;;2.90;99.90;;;;;;4936185;29;20531;-86
2022/01/23 01:30:36;;;;;;;0.40;0.40;;;2.80;99.90;;;;;;4936269;29;20406;-86
2022/01/23 01:33:13;;;;;;;0.30;0.30;;;2.80;99.90;;;;;;4936172;29;20432;-86
2022/01/23 01:35:46;;;;;;;0.40;0.40;;;2.80;99.90;;;;;;4935956;29;20482;-86
2022/01/23 01:38:14;;;;;;;0.30;0.30;;;2.80;99.90;;;;;;4936116;29;20518;-86
2022/01/23 01:40:41;;;;;;;0.30;0.30;;;2.80;99.90;;;;;;4936060;29;20466;-86
2022/01/23 01:43:08;;;;;;;0.30;0.20;;;2.80;99.90;;;;;;4935705;29;20973;-87
2022/01/23 01:45:35;;;;;;;0.30;0.30;;;2.80;99.90;;;;;;4935637;29;20456;-86
2022/01/23 01:48:03;;;;;;;0.30;0.30;;;2.80;99.90;;;;;;4935742;29;20538;-86
2022/01/23 01:50:31;;;;;;;0.30;0.30;;;2.80;99.90;;;;;;4935671;29;20444;-86
2022/01/23 01:52:58;;;;;;;0.40;0.40;;;2.80;99.90;;;;;;4938637;29;20458;-86
2022/01/23 01:55:29;;;;;;;0.30;0.30;;;2.80;99.90;;;;;;4939412;29;20491;-86
2022/01/23 01:58:01;;;;;;;0.30;0.20;;;2.80;99.90;;;;;;4939146;29;20936;-86
2022/01/23 02:00:41;;;;;;;0.50;0.50;;;2.70;99.90;;;;;;4939532;29;20515;-86
2022/01/23 02:03:34;;;;;;;0.30;0.20;;;2.80;99.90;;;;;;4939636;29;20454;-86
2022/01/23 02:08:47;;;;;;;0.30;0.30;;;2.80;99.90;;;;;;4939666;29;20436;-86
2022/01/23 02:11:19;;;;;;;0.50;0.50;;;2.80;99.90;;;;;;4939421;29;20459;-86
2022/01/23 02:13:51;;;;;;;0.30;0.30;;;2.80;99.90;;;;;;4939169;29;20471;-86
2022/01/23 02:52:11;;;;;;;1.27;0.70;;;2.80;99.90;;;;;;4919568;29;20408;-82
2022/01/23 02:54:53;;;;;;;0.47;0.47;;;2.80;99.90;;;;;;4919533;29;20584;-82
2022/01/23 02:57:32;;;;;;;0.30;0.30;;;2.80;99.90;;;;;;4919292;29;20480;-82
2022/01/23 02:59:59;;;;;;;0.30;0.30;;;2.80;99.90;;;;;;4918994;29;20928;-82
2022/01/23 03:02:34;;;;;;;0.30;0.20;;;2.80;99.90;;;;;;4919035;29;20476;-82
2022/01/23 03:05:03;;;;;;;0.30;0.30;;;2.90;99.90;;;;;;4919281;29;20470;-82
2022/01/23 03:07:50;;;;;;;0.30;0.30;;;2.80;99.90;;;;;;4918790;29;20963;-82
2022/01/23 03:10:22;;;;;;;0.53;0.43;;;2.80;99.90;;;;;;4919355;29;20581;-82
2022/01/23 03:13:37;;;;;;;0.67;0.67;;;2.80;99.90;;;;;;4918952;29;20473;-82
2022/01/23 03:24:20;;;;;;;0.30;0.30;;;2.80;99.90;;;;;;4917506;29;20500;-83
2022/01/23 03:26:59;;;;;;;0.30;0.30;;;2.70;99.90;;;;;;4918805;29;20436;-82
2022/01/23 03:29:28;;;;;;;0.60;0.60;;;2.70;99.90;;;;;;4919495;29;20444;-83
2022/01/23 03:32:11;;;;;;;0.30;0.30;;;2.70;99.90;;;;;;4918637;29;20817;-82
2022/01/23 03:34:38;;;;;;;0.30;0.20;;;2.70;99.90;;;;;;4918792;29;20484;-82
2022/01/23 03:37:05;;;;;;;0.40;0.40;;;2.70;99.90;;;;;;4918480;29;20498;-82
2022/01/23 03:39:32;;;;;;;0.80;0.70;;;2.70;99.90;;;;;;4918380;29;20440;-82
2022/01/23 03:42:00;;;;;;;0.97;0.60;;;2.70;99.90;;;;;;4918436;29;20557;-82
2022/01/23 03:44:27;;;;;;;0.30;0.27;;;2.70;99.90;;;;;;4918383;29;20485;-82
2022/01/23 03:47:14;;;;;;;0.30;0.30;;;2.70;99.90;;;;;;4918356;29;20448;-83
2022/01/23 03:49:40;;;;;;;0.30;0.30;;;2.70;99.90;;;;;;4917962;29;20475;-82
2022/01/23 03:52:09;;;;;;;0.43;0.40;;;2.70;99.90;;;;;;4918963;29;20817;-82
2022/01/23 03:54:37;;;;;;;0.30;0.30;;;2.70;99.90;;;;;;4918321;29;20476;-82
2022/01/23 03:57:06;;;;;;;0.30;0.20;;;2.70;99.90;;;;;;4918077;29;20503;-82
2022/01/23 03:59:34;;;;;;;0.40;0.40;;;2.70;99.90;;;;;;4918142;29;20463;-82
2022/01/23 04:02:01;;;;;;;0.30;0.30;;;2.80;99.90;;;;;;4918135;29;20459;-82
2022/01/23 04:04:40;;;;;;;1.17;0.37;;;2.80;99.90;;;;;;4917717;29;21014;-82
2022/01/23 04:07:09;;;;;;;0.30;0.30;;;2.80;99.90;;;;;;4917949;29;20456;-82
2022/01/23 04:09:37;;;;;;;0.30;0.30;;;2.80;99.90;;;;;;4918233;29;20440;-82
2022/01/23 04:12:08;;;;;;;0.90;0.30;;;2.80;99.90;;;;;;4917995;29;20455;-82
2022/01/23 04:14:38;;;;;;;0.40;0.40;;;2.80;99.90;;;;;;4917377;29;20479;-82
2022/01/23 04:20:19;;;;;;;0.30;0.30;;;2.80;99.90;;;;;;4917929;29;20512;-83
2022/01/23 04:33:49;;;;;;;2.20;0.40;;;2.90;99.90;;;;;;4917590;29;20423;-82
2022/01/23 05:01:03;;;;;;;0.40;0.40;;;2.80;99.90;;;;;;4936331;29;20462;-82
2022/01/23 05:06:35;;;;;;;0.30;0.30;;;2.80;99.90;;;;;;4935875;29;20850;-82
2022/01/23 05:09:02;;;;;;;0.30;0.20;;;2.80;99.90;;;;;;4936430;29;20439;-82
2022/01/23 05:11:29;;;;;;;0.30;0.27;;;2.80;99.90;;;;;;4936583;29;20863;-82
2022/01/23 05:13:55;;;;;;;0.30;0.30;;;2.80;99.90;;;;;;4935721;29;20482;-82
2022/01/23 05:16:23;;;;;;;0.30;0.30;;;2.80;99.90;;;;;;4936019;29;20462;-82
2022/01/23 05:18:50;;;;;;;0.30;0.30;;;2.80;99.90;;;;;;4936056;29;20463;-82
2022/01/23 05:21:43;;;;;;;0.30;0.30;;;2.80;99.90;;;;;;4936053;29;20443;-82
2022/01/23 05:24:10;;;;;;;0.33;0.30;;;2.80;99.90;;;;;;4935814;29;20474;-82
2022/01/23 05:26:43;;;;;;;0.40;0.40;;;2.80;99.90;;;;;;4937025;29;20813;-82
2022/01/23 05:29:10;;;;;;;0.30;0.30;;;2.80;99.90;;;;;;4940048;29;20542;-82
2022/01/23 05:31:38;;;;;;;0.30;0.20;;;2.70;99.90;;;;;;4939568;29;20442;-82
2022/01/23 05:34:05;;;;;;;0.30;0.30;;;2.70;99.90;;;;;;4940294;29;20538;-82
2022/01/23 05:36:32;;;;;;;0.40;0.30;;;2.80;99.90;;;;;;4939421;29;20494;-82
2022/01/23 05:39:00;;;;;;;0.70;0.70;;;2.80;99.90;;;;;;4939690;29;20458;-82
2022/01/23 05:41:27;;;;;;;0.50;0.50;;;2.80;99.90;;;;;;4939355;29;20451;-82
2022/01/23 05:43:54;;;;;;;0.30;0.20;;;2.80;99.90;;;;;;4939594;29;20504;-82
2022/01/23 05:46:20;;;;;;;0.80;0.80;;;2.80;99.90;;;;;;4939531;29;20459;-82
2022/01/23 05:48:48;;;;;;;0.30;0.30;;;2.80;99.90;;;;;;4939145;29;21002;-82
2022/01/23 05:51:15;;;;;;;0.40;0.30;;;2.90;99.90;;;;;;4939482;29;20451;-82
2022/01/23 05:53:42;;;;;;;0.40;0.40;;;2.90;99.90;;;;;;4939148;29;20947;-82
2022/01/23 05:56:09;;;;;;;0.30;0.30;;;2.80;99.90;;;;;;4939359;29;20448;-82
2022/01/23 05:58:36;;;;;;;0.30;0.20;;;2.80;99.90;;;;;;4939319;29;20489;-82
2022/01/23 06:01:03;;;;;;;0.40;0.40;;;2.80;99.90;;;;;;4938996;29;20451;-82
2022/01/23 06:03:29;;;;;;;0.50;0.50;;;2.90;99.90;;;;;;4939222;29;20451;-82
2022/01/23 06:05:57;;;;;;;0.57;0.57;;;2.80;99.90;;;;;;4939076;29;20507;-82
2022/01/23 06:08:25;;;;;;;0.40;0.40;;;2.80;99.90;;;;;;4939172;29;20447;-82
2022/01/23 06:10:56;;;;;;;0.30;0.30;;;2.80;99.90;;;;;;4939278;29;20455;-82
2022/01/23 06:13:23;;;;;;;0.30;0.30;;;2.80;99.90;;;;;;4939113;29;20443;-82
2022/01/23 06:15:50;;;;;;;0.30;0.30;;;2.80;99.90;;;;;;4938983;29;20479;-82
2022/01/23 06:18:16;;;;;;;0.40;0.40;;;2.70;99.90;;;;;;4938941;29;20482;-82
2022/01/23 06:20:43;;;;;;;0.30;0.30;;;2.80;99.90;;;;;;4938924;29;20458;-82
2022/01/23 06:23:12;;;;;;;0.40;0.40;;;2.80;99.90;;;;;;4938970;29;20447;-82
2022/01/23 06:25:42;;;;;;;0.30;0.30;;;2.80;99.90;;;;;;4938527;29;20979;-82
2022/01/23 06:28:09;;;;;;;0.30;0.30;;;2.80;99.90;;;;;;4938614;29;20432;-82
2022/01/23 06:30:37;;;;;;;0.50;0.50;;;2.80;99.90;;;;;;4938679;29;20550;-82
2022/01/23 06:33:05;;;;;;;0.37;0.37;;;2.80;99.90;;;;;;4938725;29;20491;-82
2022/01/23 06:35:31;;;;;;;0.30;0.27;;;2.80;99.90;;;;;;4938627;29;20482;-82
2022/01/23 06:37:58;;;;;;;0.43;0.40;;;2.80;99.90;;;;;;4938164;29;20494;-82
2022/01/23 06:40:26;;;;;;;0.70;0.53;;;2.80;99.90;;;;;;4938684;29;20459;-82
2022/01/23 06:42:53;;;;;;;1.17;1.07;;;2.80;99.90;;;;;;4938400;29;20955;-82
2022/01/23 06:45:20;;;;;;;0.47;0.47;;;2.80;99.90;;;;;;4938525;29;20471;-82
2022/01/23 06:47:46;;;;;;;0.97;0.97;;;2.80;99.90;;;;;;4938039;29;20955;-82
2022/01/23 06:50:13;;;;;;;0.77;0.77;;;2.80;99.90;;;;;;4938160;29;20439;-82
2022/01/23 06:52:40;;;;;;;0.97;0.97;;;2.80;99.90;;;;;;4938218;29;20431;-82
2022/01/23 06:55:07;;;;;;;0.60;0.60;;;2.70;99.90;;;;;;4938281;29;20474;-82
2022/01/23 06:57:36;;;;;;;0.30;0.30;;;2.70;99.90;;;;;;4938222;29;20950;-82
2022/01/23 07:00:03;;;;;;;0.30;0.30;;;2.70;99.90;;;;;;4938208;29;20475;-82
2022/01/23 07:02:29;;;;;;;1.03;0.93;;;2.70;99.90;;;;;;4937887;29;20960;-82
2022/01/23 07:04:56;;;;;;;0.30;0.30;;;2.80;99.90;;;;;;4938110;29;20478;-82
2022/01/23 07:07:23;;;;;;;0.33;0.33;;;2.80;99.90;;;;;;4938109;29;20466;-82
2022/01/23 07:09:50;;;;;;;0.90;0.90;;;2.70;99.90;;;;;;4937786;29;20955;-82
2022/01/23 07:12:16;;;;;;;0.50;0.50;;;2.70;99.90;;;;;;4937998;29;20456;-82
2022/01/23 07:14:44;;;;;;;0.47;0.47;;;2.70;99.90;;;;;;4937913;29;20472;-82
2022/01/23 07:17:11;;;;;;;0.33;0.33;;;2.80;99.90;;;;;;4937877;29;20491;-82
2022/01/23 07:19:38;;;;;;;0.30;0.30;;;2.80;99.90;;;;;;4937889;29;20456;-82
2022/01/23 07:22:05;;;;;;;0.30;0.20;;;2.80;99.90;;;;;;4937531;29;20806;-82
2022/01/23 07:24:31;;;;;;;0.57;0.57;;;2.80;99.90;;;;;;4937998;29;20474;-82
2022/01/23 07:26:59;;;;;;;0.50;0.40;;;2.80;99.90;;;;;;4937738;29;20891;-82
2022/01/23 07:29:26;;;;;;;0.30;0.30;;;2.80;99.90;;;;;;4937652;29;20448;-82
2022/01/23 07:32:06;;;;;;;1.07;0.80;;;2.80;99.90;;;;;;4937639;29;20554;-83
2022/01/23 07:34:33;;;;;;;0.40;0.40;;;2.80;99.90;;;;;;4937586;29;20471;-82
2022/01/23 07:36:59;;;;;;;0.30;0.20;;;2.80;99.90;;;;;;4937164;29;20974;-82
2022/01/23 07:39:26;;;;;;;0.30;0.30;;;2.80;99.90;;;;;;4937528;29;20457;-82
2022/01/23 07:41:53;;;;;;;0.70;0.70;;;2.80;99.90;;;;;;4937415;29;20821;-83
2022/01/23 07:44:20;;;;;;;0.30;0.20;;;2.80;99.90;;;;;;4937177;29;20459;-82
2022/01/23 07:46:46;;;;;;;0.40;0.30;;;2.80;99.90;;;;;;4937231;29;20864;-82
2022/01/23 07:49:15;;;;;;;0.70;0.70;;;2.70;99.90;;;;;;4936389;29;20484;-82
2022/01/23 07:51:41;;;;;;;4.73;0.40;;;2.70;99.90;;;;;;4937029;29;20495;-83
2022/01/23 07:54:08;;;;;;;0.50;0.50;;;2.70;99.90;;;;;;4937155;29;20479;-82
2022/01/23 07:56:36;;;;;;;0.30;0.30;;;2.70;99.90;;;;;;4936885;29;20451;-82
2022/01/23 07:59:02;;;;;;;0.30;0.30;;;2.80;99.90;;;;;;4937081;29;20516;-83
2022/01/23 08:01:30;;;;;;;1.70;0.93;;;2.80;99.90;;;;;;4937106;29;20455;-82
2022/01/23 08:03:56;;;;;;;0.30;0.20;;;2.70;99.90;;;;;;4936971;29;20471;-83
2022/01/23 08:06:28;;;;;;;0.30;0.23;;;2.80;99.90;;;;;;4937014;29;20466;-80
2022/01/23 08:08:56;;;;;;;0.30;0.30;;;2.80;99.90;;;;;;4936994;29;20446;-80
2022/01/23 08:11:23;;;;;;;0.50;0.50;;;2.80;99.90;;;;;;4936604;29;20944;-80
2022/01/23 08:13:49;;;;;;;0.60;0.60;;;2.90;99.90;;;;;;4936869;29;20440;-80
2022/01/23 08:16:17;;;;;;;0.30;0.20;;;2.90;99.90;;;;;;4936625;29;20938;-81
2022/01/23 08:18:44;;;;;;;0.30;0.20;;;2.90;99.90;;;;;;4936468;29;20479;-81
2022/01/23 08:21:11;;;;;;;0.60;0.60;;;2.90;99.90;;;;;;4936442;29;20444;-81
2022/01/23 08:28:43;;;;;;;0.40;0.40;;;2.90;99.90;;;;;;4934392;29;20483;-81
2022/01/23 08:31:10;;;;;;;4.53;1.53;;;2.90;99.90;;;;;;4936735;29;20459;-81
2022/01/23 08:33:36;;;;;;;0.40;0.40;;;2.90;99.90;;;;;;4936494;29;20459;-81
2022/01/23 08:36:03;;;;;;;0.30;0.30;;;2.90;99.90;;;;;;4949956;29;20988;-81
2022/01/23 08:38:30;;;;;;;0.30;0.30;;;3.00;99.90;;;;;;4955675;29;20486;-81
2022/01/23 08:43:40;;;;;;;0.30;0.20;;;3.10;99.90;;;;;;4954415;29;20445;-81
2022/01/23 08:46:09;;;;;;;0.30;0.27;;;3.10;99.90;;;;;;4955314;28;21016;-81
2022/01/23 08:48:36;;;;;;;0.30;0.20;;;3.10;99.90;;;;;;4955578;29;20457;-81
2022/01/23 08:51:03;;;;;;;0.40;0.40;;;3.10;99.90;;;;;;4955233;29;20941;-81
2022/01/23 08:53:30;;;;;;;0.30;0.20;;;3.20;99.90;;;;;;4955806;29;20434;-81
2022/01/23 08:55:57;;;;;;;0.30;0.30;;;3.20;99.90;;;;;;4955335;28;20474;-80
2022/01/23 08:58:24;;;;;;;0.97;0.97;;;3.20;99.90;;;;;;4955368;29;20489;-81
2022/01/23 09:00:51;;;;;;;0.30;0.30;;;3.20;99.90;;;;;;4955274;28;20832;-81
2022/01/23 09:03:19;;;;;;;1.53;1.53;;;3.20;99.90;;;;;;4956362;29;20466;-81
2022/01/23 09:05:46;;;;;;;0.30;0.20;;;3.30;99.90;;;;;;4955048;28;20466;-80
2022/01/23 09:08:12;;;;;;;0.33;0.30;;;3.40;99.90;;;;;;4955279;29;20450;-82
2022/01/23 09:10:54;;;;;;;0.33;0.30;;;3.40;99.90;;;;;;4955272;29;20450;-81
2022/01/23 09:13:32;;;;;;;0.30;0.30;;;3.50;99.90;;;;;;4955092;29;20491;-82
2022/01/23 09:15:59;;;;;;;0.40;0.40;;;3.60;99.90;;;;;;4955706;28;20494;-81
2022/01/23 09:18:27;;;;;;;0.30;0.20;;;3.60;99.90;;;;;;4955170;29;20509;-81
2022/01/23 09:20:54;;;;;;;1.60;0.73;;;3.70;99.90;;;;;;4955170;29;20455;-81
2022/01/23 09:23:20;;;;;;;0.43;0.43;;;3.70;99.90;;;;;;4955205;29;20458;-81
2022/01/23 09:25:47;;;;;;;0.67;0.40;;;3.80;99.90;;;;;;4955103;28;20478;-81
2022/01/23 09:28:14;;;;;;;0.50;0.40;;;3.90;99.90;;;;;;4954798;29;20486;-80
2022/01/23 09:30:43;;;;;;;0.30;0.30;;;4.00;99.90;;;;;;4955133;29;20454;-81
2022/01/23 09:33:10;;;;;;;0.30;0.30;;;4.10;99.90;;;;;;4955101;29;20462;-81
2022/01/23 09:35:38;;;;;;;0.30;0.30;;;4.10;99.90;;;;;;4954739;28;20462;-81
2022/01/23 09:38:05;;;;;;;0.30;0.30;;;4.20;99.90;;;;;;4954657;29;21012;-81
2022/01/23 09:40:32;;;;;;;0.40;0.40;;;4.30;99.90;;;;;;4955044;29;20454;-81
2022/01/23 09:43:02;;;;;;;0.43;0.40;;;4.30;99.90;;;;;;4955019;29;20466;-81
2022/01/23 09:45:31;;;;;;;0.70;0.50;;;4.30;99.90;;;;;;4954536;28;20455;-82
2022/01/23 09:48:02;;;;;;;1.77;0.70;;;4.30;99.90;;;;;;4954668;29;20454;-82
2022/01/23 09:50:30;;;;;;;0.90;0.90;;;4.30;99.90;;;;;;4954984;29;20426;-81
2022/01/23 09:52:59;;;;;;;0.30;0.30;;;4.30;99.90;;;;;;4954926;29;20451;-82
2022/01/23 09:55:27;;;;;;;0.40;0.40;;;4.30;99.90;;;;;;4954812;28;20474;-81
2022/01/23 09:57:55;;;;;;;0.90;0.90;;;4.30;99.90;;;;;;4954749;29;20494;-82
2022/01/23 10:00:25;;;;;;;0.83;0.83;;;4.40;99.90;;;;;;4954882;29;20466;-81
2022/01/23 10:02:53;;;;;;;0.30;0.27;;;4.40;99.90;;;;;;4954843;29;20434;-81
2022/01/23 10:05:20;;;;;;;0.30;0.30;;;4.50;99.90;;;;;;4954446;28;20462;-82
2022/01/23 10:07:48;;;;;;;0.50;0.40;;;4.60;99.90;;;;;;4954826;29;20454;-81
2022/01/23 10:10:21;;;;;;;0.80;0.57;;;4.60;99.90;;;;;;4954863;29;20438;-81
2022/01/23 10:12:50;;;;;;;2.10;0.50;;;4.70;99.90;;;;;;4955916;28;20434;-81
2022/01/23 10:15:18;;;;;;;1.97;1.80;;;4.80;99.90;;;;;;4957962;28;20482;-81
2022/01/23 10:17:45;;;;;;;0.73;0.73;;;4.90;99.90;;;;;;4958242;29;20438;-81
2022/01/23 10:20:14;;;;;;;0.80;0.50;;;5.00;99.90;;;;;;4958201;29;20434;-81
2022/01/23 10:22:45;;;;;;;0.30;0.30;;;5.10;99.90;;;;;;4958596;29;20763;-81
2022/01/23 10:25:13;;;;;;;0.30;0.30;;;5.10;99.90;;;;;;4958217;28;20530;-81
2022/01/23 10:28:02;;;;;;;0.30;0.30;;;5.20;99.90;;;;;;4957684;29;20481;-81
2022/01/23 10:30:32;;;;;;;0.40;0.40;;;5.20;99.90;;;;;;4958010;29;20477;-81
2022/01/23 10:33:07;;;;;;;0.50;0.40;;;5.20;99.90;;;;;;4958259;29;20446;-80
2022/01/23 10:35:35;;;;;;;1.47;1.13;;;5.30;99.90;;;;;;4958088;28;20485;-81
2022/01/23 10:38:08;;;;;;;0.37;0.37;;;5.30;99.90;;;;;;4958346;29;20439;-81
2022/01/23 10:40:37;;;;;;;2.87;0.70;;;5.20;99.90;;;;;;4957864;29;20438;-80
2022/01/23 10:48:48;;;;;;;0.30;0.30;;;5.40;99.90;;;;;;4957877;29;20438;-81
2022/01/23 10:51:24;;;;;;;0.50;0.50;;;5.40;99.90;;;;;;4957615;29;20439;-83
2022/01/23 10:54:15;;;;;;;0.90;0.50;;;5.50;99.90;;;;;;4957389;29;20418;-80
2022/01/23 10:57:02;;;;;;;0.30;0.30;;;5.60;99.90;;;;;;4957157;28;20999;-80
2022/01/23 10:59:45;;;;;;;0.50;0.50;;;5.70;99.90;;;;;;4957434;29;20478;-80
2022/01/23 11:02:14;;;;;;;0.30;0.30;;;5.60;99.90;;;;;;4957465;29;20450;-81
2022/01/23 11:04:56;;;;;;;0.40;0.40;;;5.70;99.90;;;;;;4957297;28;20470;-81
2022/01/23 11:07:23;;;;;;;0.67;0.40;;;5.60;99.90;;;;;;4957305;29;20439;-81
2022/01/23 11:09:57;;;;;;;1.33;1.33;;;5.70;99.90;;;;;;4957821;29;20449;-81
2022/01/23 11:12:42;;;;;;;2.70;0.57;;;5.70;99.90;;;;;;4957476;29;20435;-81
2022/01/23 11:17:58;;;;;;;0.30;0.20;;;5.70;99.90;;;;;;4957033;29;20494;-81
2022/01/23 11:20:35;;;;;;;1.63;0.50;;;5.70;99.90;;;;;;4957013;29;20800;-81
2022/01/23 11:23:04;;;;;;;0.30;0.30;;;5.70;99.90;;;;;;4956786;29;20434;-81
2022/01/23 11:25:31;;;;;;;1.17;0.60;;;5.60;99.90;;;;;;4955691;28;20571;-81
2022/01/23 11:28:02;;;;;;;0.30;0.30;;;5.60;99.90;;;;;;4956582;29;20498;-81
2022/01/23 11:30:37;;;;;;;0.30;0.30;;;5.60;99.90;;;;;;4956727;29;20509;-81
2022/01/23 11:33:05;;;;;;;1.40;0.60;;;5.50;99.90;;;;;;4956623;29;20914;-81
2022/01/23 11:35:32;;;;;;;0.30;0.20;;;5.50;99.90;;;;;;4956778;28;20462;-81
2022/01/23 11:37:59;;;;;;;0.70;0.57;;;5.50;99.90;;;;;;4956829;29;20469;-81
2022/01/23 11:40:38;;;;;;;0.37;0.33;;;5.50;99.90;;;;;;4956418;29;20481;-81
2022/01/23 11:54:14;;;;;;;0.30;0.30;;;5.40;99.90;;;;;;4956491;29;20461;-81
2022/01/23 11:56:44;;;;;;;1.40;0.53;;;5.30;99.90;;;;;;4956800;28;20470;-81
2022/01/23 11:59:35;;;;;;;0.87;0.50;;;5.20;99.90;;;;;;4956347;29;20477;-81
2022/01/23 12:02:30;;;;;;;1.07;0.63;;;5.20;99.90;;;;;;4943822;29;20474;-81
2022/01/23 12:05:25;;;;;;;1.73;0.73;;;5.10;99.90;;;;;;4956272;28;20482;-81
2022/01/23 12:08:28;;;;;;;0.30;0.30;;;5.00;99.90;;;;;;4950715;29;20462;-81
2022/01/23 12:11:34;;;;;;;0.30;0.30;;;5.00;99.90;;;;;;4951923;29;20462;-82
2022/01/23 12:17:24;;;;;;;0.30;0.30;;;5.20;99.90;;;;;;4956789;29;20406;-82
2022/01/23 12:19:53;;;;;;;0.30;0.20;;;5.30;99.90;;;;;;4956333;29;20564;-81
2022/01/23 12:22:35;;;;;;;0.30;0.30;;;5.30;99.90;;;;;;4956429;29;20431;-81
2022/01/23 12:25:12;;;;;;;0.50;0.50;;;5.40;99.90;;;;;;4956653;28;20910;-81
2022/01/23 12:27:41;;;;;;;1.47;1.37;;;5.50;99.90;;;;;;4955976;29;20478;-81
2022/01/23 12:30:40;;;;;;;0.30;0.27;;;5.40;99.90;;;;;;4956122;29;20450;-82
2022/01/23 12:33:44;;;;;;;0.30;0.30;;;5.30;99.90;;;;;;4956429;29;20497;-82
2022/01/23 12:36:22;;;;;;;0.30;0.30;;;5.20;99.90;;;;;;4955653;28;20476;-81
2022/01/23 12:38:50;;;;;;;0.30;0.30;;;5.20;99.90;;;;;;4956063;29;20480;-81
2022/01/23 12:41:23;;;;;;;0.60;0.60;;;5.10;99.90;;;;;;4956451;29;20442;-82
2022/01/23 12:49:25;;;;;;;0.50;0.40;;;5.20;99.90;;;;;;5505069;23;20500;-83
2022/01/23 12:57:13;;;;;;;0.30;0.30;;;5.10;99.90;;;;;;5913631;23;20399;-82
2022/01/23 13:31:39;;;;;;;0.40;0.40;;;5.00;99.90;;;;;;4936163;29;20402;-83
2022/01/23 13:34:21;;;;;;;0.83;0.37;;;5.10;99.90;;;;;;4936101;29;20443;-82
2022/01/23 13:36:59;;;;;;;0.50;0.50;;;5.20;99.90;;;;;;4936028;29;20831;-83
2022/01/23 13:39:32;;;;;;;0.30;0.30;;;5.10;99.90;;;;;;4935593;29;20494;-83
2022/01/23 13:42:11;;;;;;;0.40;0.40;;;5.10;99.90;;;;;;4935951;29;20525;-83
2022/01/23 13:53:08;;;;;;;0.30;0.30;;;5.00;99.90;;;;;;4939685;29;20407;-84
2022/01/23 13:58:34;;;;;;;0.40;0.40;;;4.90;99.90;;;;;;4939540;29;21031;-84
2022/01/23 14:01:14;;;;;;;0.30;0.20;;;4.90;99.90;;;;;;4939562;29;20480;-83
2022/01/23 14:03:41;;;;;;;0.30;0.30;;;4.90;99.90;;;;;;4939888;29;20522;-84
2022/01/23 14:06:08;;;;;;;0.30;0.20;;;5.00;99.90;;;;;;4939393;29;20471;-83
2022/01/23 14:08:35;;;;;;;0.30;0.30;;;4.90;99.90;;;;;;4939057;29;20451;-83
2022/01/23 14:11:03;;;;;;;0.30;0.30;;;4.80;99.90;;;;;;4939027;29;20461;-84
2022/01/23 14:13:30;;;;;;;0.30;0.30;;;4.70;99.90;;;;;;4938857;29;20945;-83
2022/01/23 14:15:57;;;;;;;0.60;0.60;;;4.70;99.90;;;;;;4939169;29;20479;-83
2022/01/23 14:18:26;;;;;;;0.30;0.30;;;4.70;99.90;;;;;;4938782;29;20968;-84
2022/01/23 14:20:57;;;;;;;0.30;0.30;;;4.70;99.90;;;;;;4939001;29;20513;-84
2022/01/23 14:23:24;;;;;;;0.50;0.50;;;4.80;99.90;;;;;;4938588;29;20519;-83
2022/01/23 14:25:53;;;;;;;0.30;0.30;;;4.80;99.90;;;;;;4938747;29;20466;-84
2022/01/23 14:28:24;;;;;;;1.27;0.60;;;4.70;99.90;;;;;;4938610;29;20458;-84
2022/01/23 14:30:53;;;;;;;0.30;0.20;;;4.70;99.90;;;;;;4938890;29;20451;-84
2022/01/23 14:33:22;;;;;;;0.30;0.30;;;4.80;99.90;;;;;;4938943;29;20459;-84
2022/01/23 14:35:50;;;;;;;0.30;0.30;;;5.00;99.90;;;;;;4938470;29;20495;-84
2022/01/23 14:38:18;;;;;;;0.30;0.20;;;5.00;99.90;;;;;;4938575;29;20989;-84
2022/01/23 14:40:59;;;;;;;0.30;0.20;;;4.90;99.90;;;;;;4938712;29;20523;-84
2022/01/23 14:43:37;;;;;;;0.30;0.20;;;4.80;99.90;;;;;;4938993;29;20446;-86
2022/01/23 14:46:06;;;;;;;0.30;0.20;;;4.70;99.90;;;;;;4939148;29;20531;-82
2022/01/23 14:48:38;;;;;;;0.30;0.20;;;4.70;99.90;;;;;;4938527;29;20511;-82
2022/01/23 14:51:06;;;;;;;0.33;0.33;;;4.60;99.90;;;;;;4938461;29;20839;-82
2022/01/23 14:53:35;;;;;;;0.30;0.20;;;4.60;99.90;;;;;;4938609;29;20475;-83
2022/01/23 14:56:04;;;;;;;0.30;0.30;;;4.60;99.90;;;;;;4938257;29;20463;-83
2022/01/23 14:58:35;;;;;;;0.30;0.20;;;4.50;99.90;;;;;;4938087;29;20522;-83
2022/01/23 15:01:04;;;;;;;0.30;0.20;;;4.60;99.90;;;;;;4938369;29;20501;-83
2022/01/23 15:03:32;;;;;;;0.30;0.30;;;4.70;99.90;;;;;;4938338;29;20478;-82
2022/01/23 15:06:00;;;;;;;0.30;0.30;;;4.60;99.90;;;;;;4938247;29;20479;-82
2022/01/23 15:08:28;;;;;;;0.47;0.47;;;4.70;99.90;;;;;;4938224;29;20459;-83
2022/01/23 15:10:57;;;;;;;0.30;0.30;;;4.70;99.90;;;;;;4938189;29;20447;-83
2022/01/23 15:13:25;;;;;;;0.30;0.30;;;4.60;99.90;;;;;;4938213;29;20837;-83
2022/01/23 15:15:55;;;;;;;0.30;0.20;;;4.60;99.90;;;;;;4938008;29;20475;-82
2022/01/23 15:18:22;;;;;;;0.30;0.20;;;4.40;99.90;;;;;;4937779;29;20439;-82
2022/01/23 15:20:49;;;;;;;0.30;0.30;;;4.30;99.90;;;;;;4937963;29;20483;-82
2022/01/23 15:23:17;;;;;;;0.30;0.20;;;4.20;99.90;;;;;;4937752;29;20494;-87
2022/01/23 15:25:45;;;;;;;0.30;0.20;;;4.10;99.90;;;;;;4938055;29;20475;-85
2022/01/23 15:28:12;;;;;;;0.30;0.20;;;4.10;99.90;;;;;;4938442;29;20463;-85
2022/01/23 15:30:41;;;;;;;0.30;0.30;;;4.10;99.90;;;;;;4937927;29;20443;-85
2022/01/23 15:33:09;;;;;;;0.30;0.30;;;4.10;99.90;;;;;;4937933;29;20818;-85
2022/01/23 15:35:44;;;;;;;0.40;0.40;;;4.10;99.90;;;;;;4937853;29;20478;-85
2022/01/23 15:38:10;;;;;;;0.30;0.30;;;4.20;99.90;;;;;;4938079;29;20447;-85
2022/01/23 15:40:37;;;;;;;0.43;0.43;;;4.20;99.90;;;;;;4937701;29;20514;-85
2022/01/23 15:43:04;;;;;;;0.30;0.30;;;4.10;99.90;;;;;;4937499;29;20447;-85
2022/01/23 15:45:31;;;;;;;0.70;0.70;;;4.10;99.90;;;;;;4937296;29;20878;-85
2022/01/23 15:47:58;;;;;;;0.30;0.27;;;4.10;99.90;;;;;;4937459;29;20447;-85
2022/01/23 15:50:26;;;;;;;0.80;0.50;;;4.00;99.90;;;;;;4937180;29;20451;-85
2022/01/23 15:52:52;;;;;;;0.30;0.30;;;4.00;99.90;;;;;;4937356;29;20450;-85
2022/01/23 15:55:20;;;;;;;0.30;0.30;;;4.00;99.90;;;;;;4937572;29;20970;-85
2022/01/23 15:57:48;;;;;;;0.30;0.30;;;4.00;99.90;;;;;;4937308;29;20451;-85
2022/01/23 16:00:17;;;;;;;0.40;0.40;;;4.00;99.90;;;;;;4937191;29;20479;-85
2022/01/23 16:02:44;;;;;;;0.40;0.40;;;4.00;99.90;;;;;;4937426;29;20490;-85
2022/01/23 16:05:12;;;;;;;0.30;0.30;;;4.00;99.90;;;;;;4937258;29;20986;-85
2022/01/23 16:07:40;;;;;;;0.30;0.30;;;4.00;99.90;;;;;;4937008;29;20439;-85
2022/01/23 16:10:07;;;;;;;0.30;0.30;;;4.00;99.90;;;;;;4936594;29;20447;-85
2022/01/23 16:12:35;;;;;;;0.30;0.30;;;4.00;99.90;;;;;;4936903;29;20442;-85
2022/01/23 16:15:02;;;;;;;0.50;0.43;;;4.00;99.90;;;;;;4936738;29;20968;-85
2022/01/23 16:17:29;;;;;;;0.30;0.30;;;4.10;99.90;;;;;;4937057;29;20455;-85
2022/01/23 16:19:58;;;;;;;0.30;0.30;;;4.00;99.90;;;;;;4936701;29;20994;-85
2022/01/23 16:22:25;;;;;;;0.30;0.20;;;4.10;99.90;;;;;;4936552;29;20581;-85
2022/01/23 16:24:53;;;;;;;0.30;0.20;;;4.10;99.90;;;;;;4936654;29;20860;-85
2022/01/23 16:27:20;;;;;;;0.50;0.40;;;4.00;99.90;;;;;;4937008;29;20455;-85
2022/01/23 16:29:46;;;;;;;0.43;0.43;;;4.20;99.90;;;;;;4936615;29;20451;-85
2022/01/23 16:32:13;;;;;;;0.30;0.20;;;4.20;99.90;;;;;;4936914;29;20458;-85